This is the latest recevied weather packets stored in our database for station/object KI4HRG. If no packets are shown the sender has not sent any weather packets the latest 10 day(s).
| Time | Temp. | Humidity | Pressure | Rain* | Wind** | Luminosity | Snow |
|---|---|---|---|---|---|---|---|
| 1787785289 | 22.22° C | 99% | 1016.3 hPa | 3.56 mm | - | 12 W/m² | - |
| 1787784988 | 22.22° C | 99% | 1016.2 hPa | 4.83 mm | - | 9 W/m² | - |
| 1787784687 | 22.22° C | 99% | 1016 hPa | 6.1 mm | - | 6 W/m² | - |
| 1787784386 | 22.22° C | 99% | 1015.8 hPa | 4.32 mm | - | 4 W/m² | - |
| 1787784081 | 22.22° C | 99% | 1016.6 hPa | 4.32 mm | - | 2 W/m² | - |
| 1787783778 | 22.22° C | 99% | 1016.9 hPa | 6.1 mm | - | 1 W/m² | - |
| 1787783478 | 22.78° C | 99% | 1016.7 hPa | 22.86 mm | - | 1 W/m² | - |
| 1787783174 | 22.78° C | 97% | 1016.8 hPa | 46.23 mm | - | 0 W/m² | - |
| 1787782868 | 23.89° C | 92% | 1017 hPa | 24.64 mm | - | 0 W/m² | - |
| 1787782562 | 27.22° C | 80% | 1016.5 hPa | 1.27 mm | - | 0 W/m² | - |
| 1787782257 | 28.89° C | 80% | 1016 hPa | 0 mm | - | 1 W/m² | - |
| 1787781953 | 28.89° C | 78% | 1015.5 hPa | 0 mm | - | 13 W/m² | - |
| 1787781648 | 28.89° C | 81% | 1015.7 hPa | 0 mm | - | 19 W/m² | - |
| 1787781345 | 29.44° C | 80% | 1015.2 hPa | 0 mm | - | 37 W/m² | - |
| 1787781044 | 29.44° C | 80% | 1015.1 hPa | 0 mm | - | 52 W/m² | - |
| 1787780744 | 29.44° C | 79% | 1015.1 hPa | 0 mm | - | 71 W/m² | - |
| 1787780438 | 30° C | 79% | 1015.1 hPa | 0 mm | - | 98 W/m² | - |
| 1787780134 | 29.44° C | 80% | 1015.1 hPa | 0 mm | - | 123 W/m² | - |
| 1787779830 | 29.44° C | 78% | 1014.8 hPa | 0 mm | - | 137 W/m² | - |
| 1787779529 | 29.44° C | 79% | 1015.1 hPa | 0 mm | - | 134 W/m² | - |
| 1787779224 | 29.44° C | 78% | 1015.2 hPa | 0 mm | - | 141 W/m² | - |
| 1787778923 | 29.44° C | 78% | 1015.2 hPa | 0 mm | - | 165 W/m² | - |
| 1787778619 | 29.44° C | 78% | 1015.4 hPa | 0 mm | - | 146 W/m² | - |
| 1787778314 | 28.89° C | 80% | 1015.5 hPa | 0 mm | - | 154 W/m² | - |
| 1787778011 | 28.89° C | 82% | 1015.3 hPa | 0 mm | - | 122 W/m² | - |
* Rain latest hour (hover to see other rain measurements)
** Current wind speed in m/s (hover to see current wind gust speed)